Latest Coastal Weather Observations for Point Fawcett

IDD60701

Issued at 3:21 pm CST Wednesday 18 October 2017 (issued every 10 minutes, with the page automatically refreshed every 10 minutes)

About coastal observations | Map of coastal stations | Coastal observations for NT | Marine services | Other Formats
Station Details ID: 200731 Name: POINT FAWCETT Lat: -11.76 Lon: 130.03 Height: 6.5 m
Data from the previous 72 hours. | See also: Recent months at Point Fawcett
Date/Time
CST
Temp
°C
Wind Pressure Rain since
9am
mm
Weather Cloud Vis
km
Sea
Height
m
Swell
Dir  Spd
kts
Gust
kts
hPa Trend Height
m
Period
s
Dir
18/03:00pm 30.2 N 13 17 1006.1 - 20.2 - - - - - - -
18/02:30pm 29.0 N 13 18 1006.8 - 20.2 - - - - - - -
18/02:00pm 27.8 N 11 15 1007.3 - 20.2 - - - - - - -
18/01:30pm 25.9 NNE 11 17 1007.8 - 20.2 - - - - - - -
18/01:22pm 25.4 NNE 10 15 1007.6 - 20.2 - - - - - - -
18/01:00pm 24.5 E 9 13 1009.6 - 20.2 - - - - - - -
18/12:30pm 24.3 ESE 11 16 1010.5 - 19.2 - - - - - - -
18/12:00pm 24.3 E 11 16 1010.0 - 17.8 - - - - - - -
18/11:30am 24.2 E 8 14 1009.9 - 15.0 - - - - - - -
18/11:00am 27.8 ENE 6 9 1009.6 - 9.0 - - - - - - -
18/10:30am 31.5 NW 6 7 1009.4 - 0.0 - - - - - - -
18/10:00am 31.9 NW 7 9 1009.3 - 0.0 - - - - - - -
18/09:30am 31.1 WNW 5 7 1009.6 - 0.0 - - - - - - -
18/09:00am 30.5 WNW 6 7 1009.3 - 0.0 - - - - - - -
18/08:30am 31.2 W 7 9 1009.1 - 0.0 - - - - - - -
18/08:00am 29.8 WNW 7 9 1008.8 - 0.0 - - - - - - -
18/07:30am 29.4 WNW 10 12 1008.3 - 0.0 - - - - - - -
18/07:00am 29.1 WNW 9 12 1008.0 - 0.0 - - - - - - -
18/06:30am 29.1 WNW 11 13 1007.4 - 0.0 - - - - - - -
18/06:00am 29.0 NW 9 11 1007.1 - 0.0 - - - - - - -
18/05:30am 29.0 NW 10 13 1006.9 - 0.0 - - - - - - -
18/05:00am 29.0 WNW 10 13 1006.5 - 0.0 - - - - - - -
18/04:30am 29.1 NW 10 13 1006.4 - 0.0 - - - - - - -
18/04:00am 29.1 WNW 11 14 1006.2 - 0.0 - - - - - - -
18/03:30am 29.0 WNW 12 15 1006.0 - 0.0 - - - - - - -
18/03:00am 29.1 WNW 12 15 1006.0 - 0.0 - - - - - - -
18/02:30am 29.3 WNW 12 15 1006.4 - 0.0 - - - - - - -
18/02:00am 29.3 WNW 12 15 1006.6 - 0.0 - - - - - - -
18/01:30am 29.4 WNW 12 15 1006.9 - 0.0 - - - - - - -
18/01:00am 29.3 W 12 15 1007.0 - 0.0 - - - - - - -
18/12:30am 29.4 W 10 13 1007.2 - 0.0 - - - - - - -
18/12:00am 29.5 W 11 13 1007.4 - 0.0 - - - - - - -
 
Date/Time
CST
Temp
°C
Wind Pressure Rain since
9am
mm
Weather Cloud Vis
km
Sea
Height
m
Swell
Dir  Spd
kts
Gust
kts
hPa Trend Height
m
Period
s
Dir
17/11:30pm 29.4 W 11 14 1007.6 - 0.0 - - - - - - -
17/11:00pm 29.5 W 11 14 1007.6 - 0.0 - - - - - - -
17/10:30pm 29.6 W 12 16 1007.5 - 0.0 - - - - - - -
17/10:00pm 29.5 W 12 15 1007.4 - 0.0 - - - - - - -
17/09:30pm 29.6 W 11 14 1007.2 - 0.0 - - - - - - -
17/09:00pm 29.4 W 8 12 1006.9 - 0.0 - - - - - - -
17/08:30pm 29.2 W 6 8 1006.8 - 0.0 - - - - - - -
17/08:00pm 29.0 W 7 9 1006.4 - 0.0 - - - - - - -
17/07:30pm 29.0 W 7 10 1006.1 - 0.0 - - - - - - -
17/07:00pm 29.0 WNW 7 9 1005.5 - 0.0 - - - - - - -
17/06:30pm 29.5 WNW 7 9 1005.2 - 0.0 - - - - - - -
17/06:00pm 30.7 NW 7 8 1005.0 - 0.0 - - - - - - -
17/05:30pm 31.6 NW 6 8 1004.9 - 0.0 - - - - - - -
17/05:00pm 32.2 NNW 7 9 1004.7 - 0.0 - - - - - - -
17/04:30pm 33.1 N 8 11 1004.9 - 0.0 - - - - - - -
17/04:00pm 33.3 N 8 11 1005.3 - 0.0 - - - - - - -
17/03:30pm 32.7 N 8 12 1005.9 - 0.0 - - - - - - -
17/03:00pm 34.5 NNW 10 13 1006.1 - 0.0 - - - - - - -
17/02:30pm 33.7 W 10 12 1006.1 - 0.0 - - - - - - -
17/02:00pm 34.2 W 10 12 1006.3 - 0.0 - - - - - - -
17/01:30pm 33.5 W 9 12 1006.7 - 0.0 - - - - - - -
17/01:00pm 33.6 W 9 12 1007.2 - 0.0 - - - - - - -
17/12:30pm 34.5 W 8 11 1007.6 - 0.0 - - - - - - -
17/12:00pm 34.3 W 9 13 1007.9 - 0.0 - - - - - - -
17/11:30am 33.6 W 7 10 1008.5 - 0.0 - - - - - - -
17/11:00am 33.1 W 8 10 1009.0 - 0.0 - - - - - - -
17/10:30am 33.2 WNW 8 10 1009.3 - 0.0 - - - - - - -
17/10:00am 32.4 W 8 10 1009.2 - 0.0 - - - - - - -
17/09:30am 32.1 W 9 11 1009.0 - 0.0 - - - - - - -
17/09:00am 31.7 W 9 11 1008.7 - 0.0 - - - - - - -
17/08:30am 30.0 W 8 10 1008.7 - 0.0 - - - - - - -
17/08:00am 30.1 W 8 10 1008.4 - 0.0 - - - - - - -
17/07:30am 29.6 WNW 9 11 1007.9 - 0.0 - - - - - - -
17/07:00am 29.4 W 9 11 1007.3 - 0.0 - - - - - - -
17/06:30am 29.1 WNW 10 12 1007.1 - 0.0 - - - - - - -
17/06:00am 29.1 WNW 9 12 1006.7 - 0.0 - - - - - - -
17/05:30am 29.1 WNW 9 12 1006.4 - 0.0 - - - - - - -
17/05:00am 29.0 WNW 10 13 1006.1 - 0.0 - - - - - - -
17/04:30am 29.1 WNW 11 15 1005.8 - 0.0 - - - - - - -
17/04:00am 29.1 WNW 12 15 1005.6 - 0.0 - - - - - - -
17/03:30am 29.1 WNW 13 15 1005.6 - 0.0 - - - - - - -
17/03:00am 29.1 NW 12 15 1005.5 - 0.0 - - - - - - -
17/02:30am 29.1 NW 13 16 1005.7 - 0.0 - - - - - - -
17/02:00am 29.1 NW 12 16 1006.0 - 0.0 - - - - - - -
17/01:30am 29.2 NNW 11 15 1006.2 - 0.0 - - - - - - -
17/01:00am 29.1 NNW 11 15 1006.5 - 0.0 - - - - - - -
17/12:30am 29.2 NW 12 14 1006.7 - 0.0 - - - - - - -
17/12:00am 29.2 NW 12 15 1006.6 - 0.0 - - - - - - -
 
Date/Time
CST
Temp
°C
Wind Pressure Rain since
9am
mm
Weather Cloud Vis
km
Sea
Height
m
Swell
Dir  Spd
kts
Gust
kts
hPa Trend Height
m
Period
s
Dir
16/11:30pm 29.3 WNW 12 15 1006.9 - 0.0 - - - - - - -
16/11:00pm 29.4 NW 11 14 1007.2 - 0.0 - - - - - - -
16/10:30pm 29.5 WNW 12 14 1007.1 - 0.0 - - - - - - -
16/10:00pm 29.5 WNW 10 12 1007.3 - 0.0 - - - - - - -
16/09:30pm 29.5 WNW 11 13 1007.1 - 0.0 - - - - - - -
16/09:00pm 29.6 NW 9 11 1006.9 - 0.0 - - - - - - -
16/08:30pm 29.6 WNW 11 13 1006.7 - 0.0 - - - - - - -
16/08:00pm 29.6 NW 10 11 1006.6 - 0.0 - - - - - - -
16/07:30pm 29.9 NW 9 11 1006.3 - 0.0 - - - - - - -
16/07:00pm 30.0 NW 8 9 1005.8 - 0.0 - - - - - - -
16/06:30pm 30.4 WNW 8 11 1005.3 - 0.0 - - - - - - -
16/06:00pm 31.1 WNW 9 11 1004.9 - 0.0 - - - - - - -
16/05:30pm 32.0 WNW 8 11 1004.8 - 0.0 - - - - - - -
16/05:00pm 32.4 WNW 8 10 1004.9 - 0.0 - - - - - - -
16/04:30pm 32.4 W 8 10 1004.9 - 0.0 - - - - - - -
16/04:00pm 32.5 W 8 11 1005.0 - 0.0 - - - - - - -
16/03:30pm 33.0 WNW 7 9 1005.2 - 0.0 - - - - - - -
16/03:00pm 33.8 WNW 7 9 1005.3 - 0.0 - - - - - - -
16/02:30pm 33.3 WNW 8 10 1005.6 - 0.0 - - - - - - -
16/02:00pm 33.0 W 7 9 1005.9 - 0.0 - - - - - - -
16/01:30pm 33.5 W 7 9 1006.3 - 0.0 - - - - - - -
16/01:00pm 33.4 WSW 5 8 1006.7 - 0.0 - - - - - - -
16/12:30pm 33.6 W 6 8 1007.1 - 0.0 - - - - - - -
16/12:00pm 33.7 WSW 6 8 1007.4 - 0.0 - - - - - - -
16/11:30am 33.2 WSW 6 8 1007.9 - 0.0 - - - - - - -
16/11:00am 33.3 WSW 6 8 1008.4 - 0.0 - - - - - - -
16/10:30am 33.1 WSW 6 8 1008.5 - 0.0 - - - - - - -
16/10:00am 32.2 WSW 5 8 1008.7 - 0.0 - - - - - - -
16/09:30am 31.7 WSW 4 6 1009.1 - 0.0 - - - - - - -
16/09:00am 30.9 W 5 6 1009.1 - 0.0 - - - - - - -
16/08:30am 30.9 SW 4 6 1009.3 - 0.0 - - - - - - -
16/08:00am 30.1 CALM 0 3 1009.1 - 0.0 - - - - - - -
16/07:30am 28.6 CALM 0 0 1009.1 - 0.0 - - - - - - -
16/07:00am 28.3 S 3 4 1008.8 - 0.0 - - - - - - -
16/06:30am 28.6 SSW 6 9 1008.4 - 0.0 - - - - - - -
16/06:00am 28.9 WSW 8 11 1007.7 - 0.0 - - - - - - -
16/05:30am 28.9 WSW 9 13 1007.4 - 0.0 - - - - - - -
16/05:00am 28.9 W 10 13 1007.0 - 0.0 - - - - - - -
16/04:30am 28.9 W 10 13 1006.8 - 0.0 - - - - - - -
16/04:00am 28.9 W 11 14 1006.7 - 0.0 - - - - - - -
16/03:30am 28.9 WNW 11 13 1006.9 - 0.0 - - - - - - -
16/03:00am 28.7 WNW 10 13 1006.8 - 0.0 - - - - - - -
16/02:30am 28.7 WNW 8 10 1007.1 - 0.0 - - - - - - -
16/02:00am 28.5 WNW 8 10 1007.4 - 0.0 - - - - - - -
16/01:30am 26.1 N 4 7 1007.5 - 0.0 - - - - - - -
16/01:00am 25.1 ESE 4 5 1008.6 - 0.0 - - - - - - -
16/12:30am 25.6 WSW 1 4 1008.9 - 0.0 - - - - - - -
16/12:00am 27.9 WNW 5 6 1008.6 - 0.0 - - - - - - -
 
Date/Time
CST
Temp
°C
Wind Pressure Rain since
9am
mm
Weather Cloud Vis
km
Sea
Height
m
Swell
Dir  Spd
kts
Gust
kts
hPa Trend Height
m
Period
s
Dir
15/11:30pm 26.9 NNW 5 9 1008.3 - 0.0 - - - - - - -
15/11:00pm 25.7 ENE 3 4 1008.7 - 0.0 - - - - - - -
15/10:30pm 26.2 E 3 3 1008.9 - 0.0 - - - - - - -
15/10:00pm 26.3 E 3 4 1008.5 - 0.0 - - - - - - -
15/09:30pm 26.7 CALM 0 0 1008.0 - 0.0 - - - - - - -
15/09:00pm 27.1 CALM 0 0 1007.8 - 0.0 - - - - - - -
15/08:30pm 27.7 N 3 7 1007.4 - 0.0 - - - - - - -
15/08:00pm 27.4 N 5 7 1006.9 - 0.0 - - - - - - -
15/07:30pm 27.1 N 6 8 1006.5 - 0.0 - - - - - - -
15/07:00pm 27.3 N 7 11 1006.4 - 0.0 - - - - - - -
15/06:30pm 27.8 N 7 9 1006.2 - 0.0 - - - - - - -
15/06:00pm 28.4 ENE 8 13 1006.3 - 0.0 - - - - - - -
15/05:30pm 31.2 W 5 7 1005.9 - 0.0 - - - - - - -
15/05:00pm 32.2 WSW 6 8 1005.6 - 0.0 - - - - - - -
15/04:30pm 32.6 W 6 8 1005.5 - 0.0 - - - - - - -
15/04:00pm 32.9 WSW 7 11 1005.4 - 0.0 - - - - - - -
15/03:30pm 33.0 WSW 8 12 1005.6 - 0.0 - - - - - - -

Other Formats:

Comma delimited format used in spreadsheet applications
http://www.bom.gov.au/fwo/IDD60701/IDD60701.94122.axf

JavaScript Object Notation format (JSON) in row-major order
http://www.bom.gov.au/fwo/IDD60701/IDD60701.94122.json